Terminal Aerodrome Forecast
Issued by NWS Albuquerque, NM

Home | Current Version | Previous Version | Text Only | Print | Product List | Glossary On
Versions: 1 2 3 4 5 6 7 8 9 10 11 12 13 14 15 16 17 18
000
FTUS45 KABQ 031740
TAFABQ
TAF
KABQ 031740Z 0318/0418 20007KT P6SM VCSH SCT040 BKN070
     FM032100 14011KT P6SM VCTS BKN070CB
     FM040000 12011KT P6SM VCSH SCT070 BKN120
      TEMPO 0402/0405 VRB22G35KT 6SM -TSRA SCT040 BKN060CB
     FM040700 09006KT P6SM BKN090=

USA.gov is the U.S. government's official web portal to all federal, state and local government web resources and services.